This is the latest recevied weather packets stored in our database for station/object IW4EMA-3. If no packets are shown the sender has not sent any weather packets the latest 10 day(s).
| Time | Temp. | Humidity | Pressure | Rain* | Wind** | Luminosity | Snow |
|---|---|---|---|---|---|---|---|
| 1777330410 | 15.56° C | 83% | 1015.4 hPa | 0 mm | - | 0 W/m² | - |
| 1777325610 | 16.11° C | 80% | 1015.7 hPa | 0 mm | - | 0 W/m² | - |
| 1777318410 | 17.78° C | 71% | 1015.6 hPa | 0 mm | - | 0 W/m² | - |
| 1777315423 | 18.89° C | 66% | 1015.3 hPa | 0 mm | - | 0 W/m² | - |
| 1777306411 | 24.44° C | 50% | 1014.6 hPa | 0 mm | - | 55 W/m² | - |
| 1777303403 | 25° C | 49% | 1014.9 hPa | 0 mm | - | 237 W/m² | - |
| 1777300411 | 25.56° C | 48% | 1015.4 hPa | 0 mm | - | 351 W/m² | - |
| 1777295003 | 25.56° C | 50% | 1016.3 hPa | 0 mm | - | 549 W/m² | - |
| 1777291403 | 25° C | 51% | 1016.9 hPa | 0 mm | - | 607 W/m² | - |
| 1777290202 | 25° C | 53% | 1016.9 hPa | 0 mm | - | 630 W/m² | - |
| 1777288411 | 25° C | 53% | 1017.3 hPa | 0 mm | - | 635 W/m² | - |
| 1777286011 | 23.89° C | 56% | 1017.5 hPa | 0 mm | - | 625 W/m² | - |
| 1777285443 | 23.89° C | 57% | 1017.7 hPa | 0 mm | - | 624 W/m² | - |
| 1777284203 | 23.33° C | 57% | 1017.8 hPa | 0 mm | - | 614 W/m² | - |
| 1777283003 | 23.33° C | 56% | 1017.9 hPa | 0 mm | - | 597 W/m² | - |
| 1777279403 | 21.11° C | 63% | 1018.4 hPa | 0 mm | - | 505 W/m² | - |
| 1777266204 | 14.44° C | 96% | 1018.1 hPa | 0 mm | - | 39 W/m² | - |
| 1777265004 | 13.89° C | 96% | 1017.9 hPa | 0 mm | - | 21 W/m² | - |
| 1777262604 | 13.89° C | 96% | 1017.4 hPa | 0 mm | - | 1 W/m² | - |
| 1777261404 | 13.89° C | 95% | 1017.5 hPa | 0 mm | - | 0 W/m² | - |
| 1777259612 | 13.89° C | 93% | 1017.3 hPa | 0 mm | - | 0 W/m² | - |
| 1777257824 | 13.89° C | 91% | 1017.3 hPa | 0 mm | - | 0 W/m² | - |
| 1777256604 | 13.33° C | 91% | 1017.3 hPa | 0 mm | - | 0 W/m² | - |
| 1777251824 | 14.44° C | 88% | 1017.1 hPa | 0 mm | - | 0 W/m² | - |
| 1777248204 | 15° C | 86% | 1017.1 hPa | 0 mm | - | 0 W/m² | - |
* Rain latest hour (hover to see other rain measurements)
** Current wind speed in m/s (hover to see current wind gust speed)